KDEH 250955Z AUTO 06006KT 10SM OVC040 00/M03 A3025 RMK AO2